sensor_id;sensor_type;location;lat;lon;timestamp;P1;durP1;ratioP1;P2;durP2;ratioP2
51459;SDS011;37534;39.772;2.718;2023-06-19T00:01:44;4.18;;;3.22;;
51459;SDS011;37534;39.772;2.718;2023-06-19T00:04:10;4.55;;;4.07;;
51459;SDS011;37534;39.772;2.718;2023-06-19T00:06:36;7.75;;;3.85;;
51459;SDS011;37534;39.772;2.718;2023-06-19T00:09:02;4.95;;;3.63;;
51459;SDS011;37534;39.772;2.718;2023-06-19T00:11:28;10.98;;;3.72;;
51459;SDS011;37534;39.772;2.718;2023-06-19T00:13:54;6.63;;;3.47;;
51459;SDS011;37534;39.772;2.718;2023-06-19T00:16:20;7.38;;;3.45;;
51459;SDS011;37534;39.772;2.718;2023-06-19T00:18:45;4.20;;;3.35;;
51459;SDS011;37534;39.772;2.718;2023-06-19T00:21:11;8.00;;;4.00;;
51459;SDS011;37534;39.772;2.718;2023-06-19T00:23:37;7.00;;;3.83;;
51459;SDS011;37534;39.772;2.718;2023-06-19T00:26:03;4.43;;;3.92;;
51459;SDS011;37534;39.772;2.718;2023-06-19T00:28:29;5.35;;;3.88;;
51459;SDS011;37534;39.772;2.718;2023-06-19T00:30:55;6.10;;;3.72;;
51459;SDS011;37534;39.772;2.718;2023-06-19T00:33:21;5.40;;;4.15;;
51459;SDS011;37534;39.772;2.718;2023-06-19T00:35:47;8.80;;;4.85;;
51459;SDS011;37534;39.772;2.718;2023-06-19T00:38:16;10.95;;;4.13;;
51459;SDS011;37534;39.772;2.718;2023-06-19T00:40:42;3.88;;;3.42;;
51459;SDS011;37534;39.772;2.718;2023-06-19T00:43:07;8.00;;;4.45;;
51459;SDS011;37534;39.772;2.718;2023-06-19T00:45:33;6.53;;;4.03;;
51459;SDS011;37534;39.772;2.718;2023-06-19T00:47:59;7.85;;;4.97;;
51459;SDS011;37534;39.772;2.718;2023-06-19T00:50:25;10.15;;;4.07;;
51459;SDS011;37534;39.772;2.718;2023-06-19T00:52:54;5.88;;;3.95;;
51459;SDS011;37534;39.772;2.718;2023-06-19T00:55:19;3.90;;;3.50;;
51459;SDS011;37534;39.772;2.718;2023-06-19T00:57:47;4.50;;;4.15;;
51459;SDS011;37534;39.772;2.718;2023-06-19T01:00:14;5.20;;;3.40;;
51459;SDS011;37534;39.772;2.718;2023-06-19T01:02:40;4.28;;;3.80;;
51459;SDS011;37534;39.772;2.718;2023-06-19T01:05:05;5.50;;;4.07;;
51459;SDS011;37534;39.772;2.718;2023-06-19T01:07:34;5.35;;;3.85;;
51459;SDS011;37534;39.772;2.718;2023-06-19T01:10:05;5.13;;;3.65;;
51459;SDS011;37534;39.772;2.718;2023-06-19T01:12:36;6.50;;;3.95;;
51459;SDS011;37534;39.772;2.718;2023-06-19T01:15:05;6.57;;;4.28;;
51459;SDS011;37534;39.772;2.718;2023-06-19T01:17:33;6.18;;;4.15;;
51459;SDS011;37534;39.772;2.718;2023-06-19T01:20:01;7.40;;;4.60;;
51459;SDS011;37534;39.772;2.718;2023-06-19T01:22:32;5.25;;;4.28;;
51459;SDS011;37534;39.772;2.718;2023-06-19T01:24:57;6.97;;;4.68;;
51459;SDS011;37534;39.772;2.718;2023-06-19T01:27:23;4.68;;;4.20;;
51459;SDS011;37534;39.772;2.718;2023-06-19T01:29:50;6.90;;;4.47;;
51459;SDS011;37534;39.772;2.718;2023-06-19T01:32:25;4.60;;;3.80;;
51459;SDS011;37534;39.772;2.718;2023-06-19T01:35:09;8.05;;;4.28;;
51459;SDS011;37534;39.772;2.718;2023-06-19T01:37:38;10.13;;;4.95;;
51459;SDS011;37534;39.772;2.718;2023-06-19T01:40:05;7.85;;;4.50;;
51459;SDS011;37534;39.772;2.718;2023-06-19T01:42:35;5.70;;;4.45;;
51459;SDS011;37534;39.772;2.718;2023-06-19T01:45:03;6.90;;;4.82;;
51459;SDS011;37534;39.772;2.718;2023-06-19T01:47:29;7.18;;;5.03;;
51459;SDS011;37534;39.772;2.718;2023-06-19T01:49:55;9.68;;;5.07;;
51459;SDS011;37534;39.772;2.718;2023-06-19T01:52:21;8.20;;;5.20;;
51459;SDS011;37534;39.772;2.718;2023-06-19T01:54:46;5.45;;;4.68;;
51459;SDS011;37534;39.772;2.718;2023-06-19T01:57:12;5.70;;;4.35;;
51459;SDS011;37534;39.772;2.718;2023-06-19T01:59:37;4.20;;;3.58;;
51459;SDS011;37534;39.772;2.718;2023-06-19T02:02:03;8.25;;;4.63;;
51459;SDS011;37534;39.772;2.718;2023-06-19T02:04:31;7.28;;;4.00;;
51459;SDS011;37534;39.772;2.718;2023-06-19T02:06:57;5.90;;;4.18;;
51459;SDS011;37534;39.772;2.718;2023-06-19T02:09:22;6.13;;;4.55;;
51459;SDS011;37534;39.772;2.718;2023-06-19T02:11:48;5.20;;;4.13;;
51459;SDS011;37534;39.772;2.718;2023-06-19T02:14:13;7.22;;;4.25;;
51459;SDS011;37534;39.772;2.718;2023-06-19T02:16:39;6.43;;;4.07;;
51459;SDS011;37534;39.772;2.718;2023-06-19T02:19:09;5.95;;;4.75;;
51459;SDS011;37534;39.772;2.718;2023-06-19T02:21:35;5.05;;;3.60;;
51459;SDS011;37534;39.772;2.718;2023-06-19T02:24:01;8.18;;;4.10;;
51459;SDS011;37534;39.772;2.718;2023-06-19T02:26:27;4.30;;;3.92;;
51459;SDS011;37534;39.772;2.718;2023-06-19T02:28:54;4.47;;;4.07;;
51459;SDS011;37534;39.772;2.718;2023-06-19T02:31:22;6.85;;;3.97;;
51459;SDS011;37534;39.772;2.718;2023-06-19T02:33:48;6.72;;;3.97;;
51459;SDS011;37534;39.772;2.718;2023-06-19T02:36:14;18.38;;;4.75;;
51459;SDS011;37534;39.772;2.718;2023-06-19T02:38:45;5.65;;;4.15;;
51459;SDS011;37534;39.772;2.718;2023-06-19T02:41:11;7.70;;;3.97;;
51459;SDS011;37534;39.772;2.718;2023-06-19T02:43:37;9.57;;;4.38;;
51459;SDS011;37534;39.772;2.718;2023-06-19T02:46:03;18.17;;;4.28;;
51459;SDS011;37534;39.772;2.718;2023-06-19T02:48:28;5.75;;;4.60;;
51459;SDS011;37534;39.772;2.718;2023-06-19T02:50:54;4.60;;;4.15;;
51459;SDS011;37534;39.772;2.718;2023-06-19T02:53:19;8.23;;;4.40;;
51459;SDS011;37534;39.772;2.718;2023-06-19T02:55:45;8.35;;;4.20;;
51459;SDS011;37534;39.772;2.718;2023-06-19T02:58:10;4.85;;;3.88;;
51459;SDS011;37534;39.772;2.718;2023-06-19T03:00:36;5.15;;;4.38;;
51459;SDS011;37534;39.772;2.718;2023-06-19T03:03:01;5.15;;;4.10;;
51459;SDS011;37534;39.772;2.718;2023-06-19T03:05:27;12.57;;;4.20;;
51459;SDS011;37534;39.772;2.718;2023-06-19T03:07:52;5.90;;;3.97;;
51459;SDS011;37534;39.772;2.718;2023-06-19T03:10:18;6.15;;;3.70;;
51459;SDS011;37534;39.772;2.718;2023-06-19T03:12:43;12.07;;;4.05;;
51459;SDS011;37534;39.772;2.718;2023-06-19T03:15:09;4.63;;;4.22;;
51459;SDS011;37534;39.772;2.718;2023-06-19T03:17:35;5.53;;;3.70;;
51459;SDS011;37534;39.772;2.718;2023-06-19T03:20:01;7.18;;;4.00;;
51459;SDS011;37534;39.772;2.718;2023-06-19T03:22:26;5.00;;;3.97;;
51459;SDS011;37534;39.772;2.718;2023-06-19T03:24:52;3.92;;;3.53;;
51459;SDS011;37534;39.772;2.718;2023-06-19T03:27:18;7.85;;;4.75;;
51459;SDS011;37534;39.772;2.718;2023-06-19T03:29:43;6.93;;;4.95;;
51459;SDS011;37534;39.772;2.718;2023-06-19T03:32:09;4.95;;;3.70;;
51459;SDS011;37534;39.772;2.718;2023-06-19T03:34:34;4.28;;;3.83;;
51459;SDS011;37534;39.772;2.718;2023-06-19T03:37:00;4.85;;;4.28;;
51459;SDS011;37534;39.772;2.718;2023-06-19T03:39:25;5.85;;;4.07;;
51459;SDS011;37534;39.772;2.718;2023-06-19T03:41:51;7.60;;;4.50;;
51459;SDS011;37534;39.772;2.718;2023-06-19T03:44:16;7.00;;;3.85;;
51459;SDS011;37534;39.772;2.718;2023-06-19T03:46:42;13.00;;;4.45;;
51459;SDS011;37534;39.772;2.718;2023-06-19T03:49:07;5.68;;;3.90;;
51459;SDS011;37534;39.772;2.718;2023-06-19T03:51:34;7.00;;;4.50;;
51459;SDS011;37534;39.772;2.718;2023-06-19T03:54:00;5.55;;;4.30;;
51459;SDS011;37534;39.772;2.718;2023-06-19T03:56:25;8.38;;;4.65;;
51459;SDS011;37534;39.772;2.718;2023-06-19T03:58:51;3.53;;;3.20;;
51459;SDS011;37534;39.772;2.718;2023-06-19T04:01:16;8.18;;;4.15;;
51459;SDS011;37534;39.772;2.718;2023-06-19T04:03:42;5.82;;;4.45;;
51459;SDS011;37534;39.772;2.718;2023-06-19T04:06:07;6.75;;;4.40;;
51459;SDS011;37534;39.772;2.718;2023-06-19T04:08:33;6.25;;;4.68;;
51459;SDS011;37534;39.772;2.718;2023-06-19T04:10:59;5.90;;;4.85;;
51459;SDS011;37534;39.772;2.718;2023-06-19T04:13:24;4.45;;;3.85;;
51459;SDS011;37534;39.772;2.718;2023-06-19T04:15:51;5.32;;;4.82;;
51459;SDS011;37534;39.772;2.718;2023-06-19T04:18:17;7.50;;;4.53;;
51459;SDS011;37534;39.772;2.718;2023-06-19T04:20:42;9.43;;;4.53;;
51459;SDS011;37534;39.772;2.718;2023-06-19T04:23:08;4.65;;;4.22;;
51459;SDS011;37534;39.772;2.718;2023-06-19T04:25:34;4.60;;;3.85;;
51459;SDS011;37534;39.772;2.718;2023-06-19T04:28:00;4.80;;;4.38;;
51459;SDS011;37534;39.772;2.718;2023-06-19T04:30:28;7.10;;;5.53;;
51459;SDS011;37534;39.772;2.718;2023-06-19T04:32:54;5.32;;;4.20;;
51459;SDS011;37534;39.772;2.718;2023-06-19T04:35:20;5.35;;;4.18;;
51459;SDS011;37534;39.772;2.718;2023-06-19T04:37:46;3.58;;;3.25;;
51459;SDS011;37534;39.772;2.718;2023-06-19T04:40:13;5.18;;;4.05;;
51459;SDS011;37534;39.772;2.718;2023-06-19T04:42:39;8.05;;;3.70;;
51459;SDS011;37534;39.772;2.718;2023-06-19T04:45:05;5.95;;;3.90;;
51459;SDS011;37534;39.772;2.718;2023-06-19T04:47:34;4.68;;;3.42;;
51459;SDS011;37534;39.772;2.718;2023-06-19T04:50:00;4.63;;;3.53;;
51459;SDS011;37534;39.772;2.718;2023-06-19T04:52:25;5.40;;;3.50;;
51459;SDS011;37534;39.772;2.718;2023-06-19T04:54:51;13.85;;;4.57;;
51459;SDS011;37534;39.772;2.718;2023-06-19T04:57:17;11.85;;;4.45;;
51459;SDS011;37534;39.772;2.718;2023-06-19T04:59:42;7.82;;;3.97;;
51459;SDS011;37534;39.772;2.718;2023-06-19T05:02:11;4.57;;;4.00;;
51459;SDS011;37534;39.772;2.718;2023-06-19T05:04:37;4.55;;;4.03;;
51459;SDS011;37534;39.772;2.718;2023-06-19T05:07:03;7.15;;;4.32;;
51459;SDS011;37534;39.772;2.718;2023-06-19T05:09:28;7.70;;;4.03;;
51459;SDS011;37534;39.772;2.718;2023-06-19T05:11:54;5.35;;;3.80;;
51459;SDS011;37534;39.772;2.718;2023-06-19T05:14:20;4.50;;;3.30;;
51459;SDS011;37534;39.772;2.718;2023-06-19T05:16:46;7.47;;;4.05;;
51459;SDS011;37534;39.772;2.718;2023-06-19T05:19:11;17.10;;;4.93;;
51459;SDS011;37534;39.772;2.718;2023-06-19T05:21:36;4.32;;;3.85;;
51459;SDS011;37534;39.772;2.718;2023-06-19T05:24:02;5.85;;;3.80;;
51459;SDS011;37534;39.772;2.718;2023-06-19T05:26:28;8.60;;;4.57;;
51459;SDS011;37534;39.772;2.718;2023-06-19T05:28:53;4.03;;;3.63;;
51459;SDS011;37534;39.772;2.718;2023-06-19T05:31:19;5.30;;;4.20;;
51459;SDS011;37534;39.772;2.718;2023-06-19T05:33:44;9.77;;;5.18;;
51459;SDS011;37534;39.772;2.718;2023-06-19T05:36:10;5.05;;;4.25;;
51459;SDS011;37534;39.772;2.718;2023-06-19T05:38:36;7.50;;;4.55;;
51459;SDS011;37534;39.772;2.718;2023-06-19T05:41:02;8.90;;;4.40;;
51459;SDS011;37534;39.772;2.718;2023-06-19T05:43:28;9.98;;;5.25;;
51459;SDS011;37534;39.772;2.718;2023-06-19T05:45:55;10.68;;;5.22;;
51459;SDS011;37534;39.772;2.718;2023-06-19T05:48:21;13.40;;;5.07;;
51459;SDS011;37534;39.772;2.718;2023-06-19T05:50:46;16.80;;;4.78;;
51459;SDS011;37534;39.772;2.718;2023-06-19T05:53:12;10.45;;;4.97;;
51459;SDS011;37534;39.772;2.718;2023-06-19T05:55:38;5.63;;;4.18;;
51459;SDS011;37534;39.772;2.718;2023-06-19T05:58:04;4.22;;;3.80;;
51459;SDS011;37534;39.772;2.718;2023-06-19T06:00:30;7.05;;;4.88;;
51459;SDS011;37534;39.772;2.718;2023-06-19T06:02:57;7.88;;;4.93;;
51459;SDS011;37534;39.772;2.718;2023-06-19T06:05:26;4.50;;;4.10;;
51459;SDS011;37534;39.772;2.718;2023-06-19T06:07:52;6.55;;;4.78;;
51459;SDS011;37534;39.772;2.718;2023-06-19T06:10:22;9.30;;;4.82;;
51459;SDS011;37534;39.772;2.718;2023-06-19T06:12:49;11.63;;;5.00;;
51459;SDS011;37534;39.772;2.718;2023-06-19T06:15:14;12.20;;;4.53;;
51459;SDS011;37534;39.772;2.718;2023-06-19T06:17:40;6.82;;;4.18;;
51459;SDS011;37534;39.772;2.718;2023-06-19T06:20:06;5.95;;;4.68;;
51459;SDS011;37534;39.772;2.718;2023-06-19T06:22:39;11.48;;;4.97;;
51459;SDS011;37534;39.772;2.718;2023-06-19T06:25:05;21.75;;;5.78;;
51459;SDS011;37534;39.772;2.718;2023-06-19T06:27:31;25.75;;;6.45;;
51459;SDS011;37534;39.772;2.718;2023-06-19T06:29:57;6.97;;;4.60;;
51459;SDS011;37534;39.772;2.718;2023-06-19T06:32:22;7.53;;;4.70;;
51459;SDS011;37534;39.772;2.718;2023-06-19T06:34:48;6.88;;;4.80;;
51459;SDS011;37534;39.772;2.718;2023-06-19T06:37:13;5.72;;;4.30;;
51459;SDS011;37534;39.772;2.718;2023-06-19T06:39:41;26.20;;;5.18;;
51459;SDS011;37534;39.772;2.718;2023-06-19T06:42:06;4.47;;;4.10;;
51459;SDS011;37534;39.772;2.718;2023-06-19T06:44:32;6.90;;;5.15;;
51459;SDS011;37534;39.772;2.718;2023-06-19T06:46:57;8.50;;;4.50;;
51459;SDS011;37534;39.772;2.718;2023-06-19T06:49:23;9.48;;;5.57;;
51459;SDS011;37534;39.772;2.718;2023-06-19T06:51:49;9.02;;;4.72;;
51459;SDS011;37534;39.772;2.718;2023-06-19T06:54:14;9.90;;;5.15;;
51459;SDS011;37534;39.772;2.718;2023-06-19T06:56:40;7.38;;;4.78;;
51459;SDS011;37534;39.772;2.718;2023-06-19T06:59:06;8.00;;;5.30;;
51459;SDS011;37534;39.772;2.718;2023-06-19T07:01:31;11.73;;;4.18;;
51459;SDS011;37534;39.772;2.718;2023-06-19T07:03:57;11.32;;;4.20;;
51459;SDS011;37534;39.772;2.718;2023-06-19T07:06:22;11.45;;;5.47;;
51459;SDS011;37534;39.772;2.718;2023-06-19T07:08:48;7.10;;;4.60;;
51459;SDS011;37534;39.772;2.718;2023-06-19T07:11:13;9.27;;;5.18;;
51459;SDS011;37534;39.772;2.718;2023-06-19T07:13:39;14.68;;;4.65;;
51459;SDS011;37534;39.772;2.718;2023-06-19T07:16:06;6.13;;;4.63;;
51459;SDS011;37534;39.772;2.718;2023-06-19T07:18:32;4.80;;;4.35;;
51459;SDS011;37534;39.772;2.718;2023-06-19T07:21:00;5.93;;;4.32;;
51459;SDS011;37534;39.772;2.718;2023-06-19T07:23:26;5.97;;;4.22;;
51459;SDS011;37534;39.772;2.718;2023-06-19T07:25:52;57.80;;;14.13;;
51459;SDS011;37534;39.772;2.718;2023-06-19T07:28:17;16.58;;;6.07;;
51459;SDS011;37534;39.772;2.718;2023-06-19T07:30:43;10.90;;;4.15;;
51459;SDS011;37534;39.772;2.718;2023-06-19T07:33:09;10.88;;;4.63;;
51459;SDS011;37534;39.772;2.718;2023-06-19T07:35:35;18.60;;;4.97;;
51459;SDS011;37534;39.772;2.718;2023-06-19T07:38:00;6.00;;;3.92;;
51459;SDS011;37534;39.772;2.718;2023-06-19T07:40:26;9.02;;;4.93;;
51459;SDS011;37534;39.772;2.718;2023-06-19T07:42:51;21.30;;;5.15;;
51459;SDS011;37534;39.772;2.718;2023-06-19T07:45:17;8.40;;;5.38;;
51459;SDS011;37534;39.772;2.718;2023-06-19T07:47:42;7.32;;;4.40;;
51459;SDS011;37534;39.772;2.718;2023-06-19T07:50:08;8.65;;;5.28;;
51459;SDS011;37534;39.772;2.718;2023-06-19T07:52:34;10.43;;;4.82;;
51459;SDS011;37534;39.772;2.718;2023-06-19T07:54:59;8.60;;;4.00;;
51459;SDS011;37534;39.772;2.718;2023-06-19T07:57:25;15.38;;;4.60;;
51459;SDS011;37534;39.772;2.718;2023-06-19T07:59:52;13.57;;;4.47;;
51459;SDS011;37534;39.772;2.718;2023-06-19T08:02:19;13.85;;;4.82;;
51459;SDS011;37534;39.772;2.718;2023-06-19T08:04:45;5.78;;;3.67;;
51459;SDS011;37534;39.772;2.718;2023-06-19T08:07:11;12.25;;;4.38;;
51459;SDS011;37534;39.772;2.718;2023-06-19T08:09:37;14.68;;;3.63;;
51459;SDS011;37534;39.772;2.718;2023-06-19T08:12:03;17.25;;;4.55;;
51459;SDS011;37534;39.772;2.718;2023-06-19T08:14:29;16.75;;;4.20;;
51459;SDS011;37534;39.772;2.718;2023-06-19T08:16:54;30.50;;;6.55;;
51459;SDS011;37534;39.772;2.718;2023-06-19T08:19:20;17.10;;;4.97;;
51459;SDS011;37534;39.772;2.718;2023-06-19T08:21:45;23.52;;;5.78;;
51459;SDS011;37534;39.772;2.718;2023-06-19T08:24:11;19.08;;;5.07;;
51459;SDS011;37534;39.772;2.718;2023-06-19T08:26:37;14.27;;;5.43;;
51459;SDS011;37534;39.772;2.718;2023-06-19T08:29:02;18.38;;;5.35;;
51459;SDS011;37534;39.772;2.718;2023-06-19T08:31:28;18.40;;;5.00;;
51459;SDS011;37534;39.772;2.718;2023-06-19T08:33:54;17.02;;;4.90;;
51459;SDS011;37534;39.772;2.718;2023-06-19T08:36:20;15.43;;;5.25;;
51459;SDS011;37534;39.772;2.718;2023-06-19T08:38:45;13.93;;;5.47;;
51459;SDS011;37534;39.772;2.718;2023-06-19T08:41:17;20.83;;;5.47;;
51459;SDS011;37534;39.772;2.718;2023-06-19T08:43:46;13.35;;;5.07;;
51459;SDS011;37534;39.772;2.718;2023-06-19T08:46:16;23.65;;;6.57;;
51459;SDS011;37534;39.772;2.718;2023-06-19T08:48:45;17.63;;;6.25;;
51459;SDS011;37534;39.772;2.718;2023-06-19T08:51:11;19.05;;;4.75;;
51459;SDS011;37534;39.772;2.718;2023-06-19T08:53:44;16.75;;;5.72;;
51459;SDS011;37534;39.772;2.718;2023-06-19T08:56:16;14.60;;;5.68;;
51459;SDS011;37534;39.772;2.718;2023-06-19T08:58:42;21.55;;;5.80;;
51459;SDS011;37534;39.772;2.718;2023-06-19T09:01:07;16.85;;;5.75;;
51459;SDS011;37534;39.772;2.718;2023-06-19T09:03:33;20.17;;;6.20;;
51459;SDS011;37534;39.772;2.718;2023-06-19T09:06:02;38.72;;;6.30;;
51459;SDS011;37534;39.772;2.718;2023-06-19T09:08:34;14.52;;;5.30;;
51459;SDS011;37534;39.772;2.718;2023-06-19T09:11:00;23.85;;;5.95;;
51459;SDS011;37534;39.772;2.718;2023-06-19T09:13:28;19.45;;;5.68;;
51459;SDS011;37534;39.772;2.718;2023-06-19T09:15:58;16.95;;;5.78;;
51459;SDS011;37534;39.772;2.718;2023-06-19T09:18:25;19.27;;;4.87;;
51459;SDS011;37534;39.772;2.718;2023-06-19T09:20:52;16.27;;;5.80;;
51459;SDS011;37534;39.772;2.718;2023-06-19T09:23:19;12.70;;;5.22;;
51459;SDS011;37534;39.772;2.718;2023-06-19T09:25:49;16.58;;;5.03;;
51459;SDS011;37534;39.772;2.718;2023-06-19T09:28:16;8.52;;;3.53;;
51459;SDS011;37534;39.772;2.718;2023-06-19T09:33:21;8.45;;;3.65;;
51459;SDS011;37534;39.772;2.718;2023-06-19T09:35:48;13.30;;;4.80;;
51459;SDS011;37534;39.772;2.718;2023-06-19T09:38:16;15.35;;;4.78;;
51459;SDS011;37534;39.772;2.718;2023-06-19T09:40:44;13.05;;;5.35;;
51459;SDS011;37534;39.772;2.718;2023-06-19T09:43:11;8.48;;;4.55;;
51459;SDS011;37534;39.772;2.718;2023-06-19T09:45:44;15.13;;;5.53;;
51459;SDS011;37534;39.772;2.718;2023-06-19T09:48:14;10.07;;;5.47;;
51459;SDS011;37534;39.772;2.718;2023-06-19T09:50:43;10.93;;;4.63;;
51459;SDS011;37534;39.772;2.718;2023-06-19T09:53:11;18.25;;;5.63;;
51459;SDS011;37534;39.772;2.718;2023-06-19T09:55:37;22.00;;;6.43;;
51459;SDS011;37534;39.772;2.718;2023-06-19T09:58:02;26.92;;;6.10;;
51459;SDS011;37534;39.772;2.718;2023-06-19T10:00:30;24.88;;;7.03;;
51459;SDS011;37534;39.772;2.718;2023-06-19T10:02:57;16.42;;;5.45;;
51459;SDS011;37534;39.772;2.718;2023-06-19T10:05:28;7.82;;;4.32;;
51459;SDS011;37534;39.772;2.718;2023-06-19T10:07:55;12.27;;;4.50;;
51459;SDS011;37534;39.772;2.718;2023-06-19T10:10:25;22.95;;;4.82;;
51459;SDS011;37534;39.772;2.718;2023-06-19T10:12:53;11.32;;;4.18;;
51459;SDS011;37534;39.772;2.718;2023-06-19T10:15:22;20.50;;;4.95;;
51459;SDS011;37534;39.772;2.718;2023-06-19T10:18:04;10.52;;;4.53;;
51459;SDS011;37534;39.772;2.718;2023-06-19T10:20:34;16.30;;;5.45;;
51459;SDS011;37534;39.772;2.718;2023-06-19T10:23:07;13.32;;;5.43;;
51459;SDS011;37534;39.772;2.718;2023-06-19T10:25:34;11.25;;;4.75;;
51459;SDS011;37534;39.772;2.718;2023-06-19T10:28:02;15.63;;;5.53;;
51459;SDS011;37534;39.772;2.718;2023-06-19T10:30:31;9.88;;;4.75;;
51459;SDS011;37534;39.772;2.718;2023-06-19T10:32:57;21.15;;;5.05;;
51459;SDS011;37534;39.772;2.718;2023-06-19T10:35:22;8.65;;;5.18;;
51459;SDS011;37534;39.772;2.718;2023-06-19T10:37:49;11.73;;;4.95;;
51459;SDS011;37534;39.772;2.718;2023-06-19T10:40:15;12.55;;;4.82;;
51459;SDS011;37534;39.772;2.718;2023-06-19T10:42:42;11.88;;;4.28;;
51459;SDS011;37534;39.772;2.718;2023-06-19T10:45:09;18.92;;;5.35;;
51459;SDS011;37534;39.772;2.718;2023-06-19T10:47:41;18.00;;;5.13;;
51459;SDS011;37534;39.772;2.718;2023-06-19T10:50:10;14.00;;;5.85;;
51459;SDS011;37534;39.772;2.718;2023-06-19T10:52:43;11.15;;;4.72;;
51459;SDS011;37534;39.772;2.718;2023-06-19T10:55:10;12.50;;;5.75;;
51459;SDS011;37534;39.772;2.718;2023-06-19T10:57:36;14.93;;;5.47;;
51459;SDS011;37534;39.772;2.718;2023-06-19T11:00:02;14.20;;;5.10;;
51459;SDS011;37534;39.772;2.718;2023-06-19T11:02:37;9.40;;;4.47;;
51459;SDS011;37534;39.772;2.718;2023-06-19T11:05:04;11.80;;;4.97;;
51459;SDS011;37534;39.772;2.718;2023-06-19T11:07:31;17.58;;;5.57;;
51459;SDS011;37534;39.772;2.718;2023-06-19T11:09:57;11.52;;;4.80;;
51459;SDS011;37534;39.772;2.718;2023-06-19T11:12:23;18.83;;;5.53;;
51459;SDS011;37534;39.772;2.718;2023-06-19T11:14:49;16.70;;;5.57;;
51459;SDS011;37534;39.772;2.718;2023-06-19T11:17:15;19.08;;;5.00;;
51459;SDS011;37534;39.772;2.718;2023-06-19T11:19:43;16.02;;;5.88;;
51459;SDS011;37534;39.772;2.718;2023-06-19T11:22:09;12.38;;;4.75;;
51459;SDS011;37534;39.772;2.718;2023-06-19T11:24:36;16.88;;;5.53;;
51459;SDS011;37534;39.772;2.718;2023-06-19T11:27:02;11.25;;;5.13;;
51459;SDS011;37534;39.772;2.718;2023-06-19T11:29:31;17.88;;;5.45;;
51459;SDS011;37534;39.772;2.718;2023-06-19T11:32:06;13.90;;;5.63;;
51459;SDS011;37534;39.772;2.718;2023-06-19T11:34:37;18.65;;;5.30;;
51459;SDS011;37534;39.772;2.718;2023-06-19T11:37:11;10.15;;;5.45;;
51459;SDS011;37534;39.772;2.718;2023-06-19T11:39:37;16.50;;;5.28;;
51459;SDS011;37534;39.772;2.718;2023-06-19T11:42:02;12.10;;;5.80;;
51459;SDS011;37534;39.772;2.718;2023-06-19T11:44:28;13.25;;;5.15;;
51459;SDS011;37534;39.772;2.718;2023-06-19T11:46:56;20.70;;;6.78;;
51459;SDS011;37534;39.772;2.718;2023-06-19T11:49:23;20.80;;;5.88;;
51459;SDS011;37534;39.772;2.718;2023-06-19T11:51:50;17.55;;;5.45;;
51459;SDS011;37534;39.772;2.718;2023-06-19T11:54:15;17.05;;;5.68;;
51459;SDS011;37534;39.772;2.718;2023-06-19T11:56:41;17.27;;;5.93;;
51459;SDS011;37534;39.772;2.718;2023-06-19T11:59:07;10.90;;;5.40;;
51459;SDS011;37534;39.772;2.718;2023-06-19T12:01:33;13.38;;;4.93;;
51459;SDS011;37534;39.772;2.718;2023-06-19T12:04:00;17.20;;;6.35;;
51459;SDS011;37534;39.772;2.718;2023-06-19T12:06:26;14.85;;;5.78;;
51459;SDS011;37534;39.772;2.718;2023-06-19T12:08:53;15.73;;;5.85;;
51459;SDS011;37534;39.772;2.718;2023-06-19T12:11:18;17.67;;;6.05;;
51459;SDS011;37534;39.772;2.718;2023-06-19T12:13:44;13.43;;;5.43;;
51459;SDS011;37534;39.772;2.718;2023-06-19T12:16:10;19.80;;;6.20;;
51459;SDS011;37534;39.772;2.718;2023-06-19T12:18:36;33.95;;;6.57;;
51459;SDS011;37534;39.772;2.718;2023-06-19T12:21:02;12.60;;;6.53;;
51459;SDS011;37534;39.772;2.718;2023-06-19T12:23:28;19.50;;;6.95;;
51459;SDS011;37534;39.772;2.718;2023-06-19T12:25:54;15.20;;;5.72;;
51459;SDS011;37534;39.772;2.718;2023-06-19T12:28:19;15.77;;;6.22;;
51459;SDS011;37534;39.772;2.718;2023-06-19T12:30:46;16.65;;;5.40;;
51459;SDS011;37534;39.772;2.718;2023-06-19T12:33:13;22.65;;;6.38;;
51459;SDS011;37534;39.772;2.718;2023-06-19T12:35:39;16.27;;;6.78;;
51459;SDS011;37534;39.772;2.718;2023-06-19T12:38:06;17.00;;;5.85;;
51459;SDS011;37534;39.772;2.718;2023-06-19T12:40:32;11.15;;;5.93;;
51459;SDS011;37534;39.772;2.718;2023-06-19T12:42:58;18.75;;;6.47;;
51459;SDS011;37534;39.772;2.718;2023-06-19T12:45:24;12.93;;;6.43;;
51459;SDS011;37534;39.772;2.718;2023-06-19T12:47:50;20.60;;;6.22;;
51459;SDS011;37534;39.772;2.718;2023-06-19T12:50:15;18.35;;;6.50;;
51459;SDS011;37534;39.772;2.718;2023-06-19T12:52:41;27.38;;;8.48;;
51459;SDS011;37534;39.772;2.718;2023-06-19T12:55:06;14.40;;;6.13;;
51459;SDS011;37534;39.772;2.718;2023-06-19T12:57:32;26.85;;;7.43;;
51459;SDS011;37534;39.772;2.718;2023-06-19T12:59:58;12.95;;;5.93;;
51459;SDS011;37534;39.772;2.718;2023-06-19T13:02:23;14.73;;;6.38;;
51459;SDS011;37534;39.772;2.718;2023-06-19T13:04:49;20.00;;;7.53;;
51459;SDS011;37534;39.772;2.718;2023-06-19T13:07:14;31.05;;;8.13;;
51459;SDS011;37534;39.772;2.718;2023-06-19T13:09:40;23.17;;;7.70;;
51459;SDS011;37534;39.772;2.718;2023-06-19T13:12:06;25.90;;;7.90;;
51459;SDS011;37534;39.772;2.718;2023-06-19T13:14:32;27.67;;;7.85;;
51459;SDS011;37534;39.772;2.718;2023-06-19T13:16:59;27.38;;;7.93;;
51459;SDS011;37534;39.772;2.718;2023-06-19T13:19:25;19.05;;;8.02;;
51459;SDS011;37534;39.772;2.718;2023-06-19T13:21:51;35.60;;;8.07;;
51459;SDS011;37534;39.772;2.718;2023-06-19T13:24:17;30.27;;;8.88;;
51459;SDS011;37534;39.772;2.718;2023-06-19T13:26:43;32.65;;;8.60;;
51459;SDS011;37534;39.772;2.718;2023-06-19T13:29:10;19.13;;;8.13;;
51459;SDS011;37534;39.772;2.718;2023-06-19T13:31:37;38.20;;;10.23;;
51459;SDS011;37534;39.772;2.718;2023-06-19T13:34:02;28.40;;;9.25;;
51459;SDS011;37534;39.772;2.718;2023-06-19T13:36:29;21.58;;;7.35;;
51459;SDS011;37534;39.772;2.718;2023-06-19T13:38:54;24.48;;;8.95;;
51459;SDS011;37534;39.772;2.718;2023-06-19T13:41:20;21.05;;;8.25;;
51459;SDS011;37534;39.772;2.718;2023-06-19T13:43:49;31.88;;;8.77;;
51459;SDS011;37534;39.772;2.718;2023-06-19T13:46:16;21.65;;;8.88;;
51459;SDS011;37534;39.772;2.718;2023-06-19T13:48:42;21.98;;;8.93;;
51459;SDS011;37534;39.772;2.718;2023-06-19T13:51:07;26.55;;;9.25;;
51459;SDS011;37534;39.772;2.718;2023-06-19T13:53:33;26.67;;;9.70;;
51459;SDS011;37534;39.772;2.718;2023-06-19T13:55:58;30.05;;;9.05;;
51459;SDS011;37534;39.772;2.718;2023-06-19T13:58:24;32.28;;;9.65;;
51459;SDS011;37534;39.772;2.718;2023-06-19T14:00:50;32.30;;;8.93;;
51459;SDS011;37534;39.772;2.718;2023-06-19T14:03:15;32.97;;;9.88;;
51459;SDS011;37534;39.772;2.718;2023-06-19T14:05:41;23.33;;;8.52;;
51459;SDS011;37534;39.772;2.718;2023-06-19T14:08:06;30.02;;;9.98;;
51459;SDS011;37534;39.772;2.718;2023-06-19T14:10:33;20.38;;;8.30;;
51459;SDS011;37534;39.772;2.718;2023-06-19T14:12:59;23.48;;;9.68;;
51459;SDS011;37534;39.772;2.718;2023-06-19T14:15:24;25.17;;;9.60;;
51459;SDS011;37534;39.772;2.718;2023-06-19T14:17:50;30.88;;;8.80;;
51459;SDS011;37534;39.772;2.718;2023-06-19T14:20:15;19.70;;;8.75;;
51459;SDS011;37534;39.772;2.718;2023-06-19T14:22:41;39.97;;;10.07;;
51459;SDS011;37534;39.772;2.718;2023-06-19T14:25:07;36.22;;;9.73;;
51459;SDS011;37534;39.772;2.718;2023-06-19T14:27:33;25.60;;;9.25;;
51459;SDS011;37534;39.772;2.718;2023-06-19T14:29:58;25.33;;;9.48;;
51459;SDS011;37534;39.772;2.718;2023-06-19T14:32:24;30.52;;;10.02;;
51459;SDS011;37534;39.772;2.718;2023-06-19T14:34:50;27.73;;;9.63;;
51459;SDS011;37534;39.772;2.718;2023-06-19T14:37:15;29.75;;;9.23;;
51459;SDS011;37534;39.772;2.718;2023-06-19T14:39:42;23.20;;;9.77;;